sensor_id;sensor_type;location;lat;lon;timestamp;P1;durP1;ratioP1;P2;durP2;ratioP2
74483;SDS011;62942;52.462;10.846;2022-12-07T00:00:54;23.3;;;37;;
74483;SDS011;62942;52.462;10.846;2022-12-07T00:01:54;22.1;;;34.9;;
74483;SDS011;62942;52.462;10.846;2022-12-07T00:03:04;22.4;;;34.5;;
74483;SDS011;62942;52.462;10.846;2022-12-07T00:04:15;22.7;;;36.4;;
74483;SDS011;62942;52.462;10.846;2022-12-07T00:05:24;22.9;;;37.2;;
74483;SDS011;62942;52.462;10.846;2022-12-07T00:06:35;22.4;;;36.9;;
74483;SDS011;62942;52.462;10.846;2022-12-07T00:07:34;22.9;;;34.7;;
74483;SDS011;62942;52.462;10.846;2022-12-07T00:08:45;22.5;;;35.5;;
74483;SDS011;62942;52.462;10.846;2022-12-07T00:09:44;22.4;;;35.5;;
74483;SDS011;62942;52.462;10.846;2022-12-07T00:10:54;22.9;;;35.1;;
74483;SDS011;62942;52.462;10.846;2022-12-07T00:11:54;22.8;;;35.4;;
74483;SDS011;62942;52.462;10.846;2022-12-07T00:13:04;23.2;;;35.1;;
74483;SDS011;62942;52.462;10.846;2022-12-07T00:14:14;22.9;;;35.3;;
74483;SDS011;62942;52.462;10.846;2022-12-07T00:15:14;23;;;35.8;;
74483;SDS011;62942;52.462;10.846;2022-12-07T00:16:25;22.2;;;34.2;;
74483;SDS011;62942;52.462;10.846;2022-12-07T00:17:24;23.2;;;34.9;;
74483;SDS011;62942;52.462;10.846;2022-12-07T00:18:34;23;;;34.8;;
74483;SDS011;62942;52.462;10.846;2022-12-07T00:19:34;22.5;;;34.2;;
74483;SDS011;62942;52.462;10.846;2022-12-07T00:20:44;22.4;;;33.5;;
74483;SDS011;62942;52.462;10.846;2022-12-07T00:21:54;22.8;;;35.4;;
74483;SDS011;62942;52.462;10.846;2022-12-07T00:22:54;22.5;;;33.2;;
74483;SDS011;62942;52.462;10.846;2022-12-07T00:23:54;22.3;;;33.8;;
74483;SDS011;62942;52.462;10.846;2022-12-07T00:25:04;22;;;33.9;;
74483;SDS011;62942;52.462;10.846;2022-12-07T00:26:05;22;;;34.9;;
74483;SDS011;62942;52.462;10.846;2022-12-07T00:27:14;22.4;;;33.7;;
74483;SDS011;62942;52.462;10.846;2022-12-07T00:28:14;22;;;32.8;;
74483;SDS011;62942;52.462;10.846;2022-12-07T00:29:24;22.2;;;33;;
74483;SDS011;62942;52.462;10.846;2022-12-07T00:30:34;22;;;34.3;;
74483;SDS011;62942;52.462;10.846;2022-12-07T00:31:44;22.3;;;34;;
74483;SDS011;62942;52.462;10.846;2022-12-07T00:32:54;21.7;;;33.9;;
74483;SDS011;62942;52.462;10.846;2022-12-07T00:33:54;22.4;;;34.5;;
74483;SDS011;62942;52.462;10.846;2022-12-07T00:34:54;21.8;;;32.6;;
74483;SDS011;62942;52.462;10.846;2022-12-07T00:36:05;22.4;;;33.9;;
74483;SDS011;62942;52.462;10.846;2022-12-07T00:37:14;21.8;;;33.1;;
74483;SDS011;62942;52.462;10.846;2022-12-07T00:38:24;22.4;;;32.8;;
74483;SDS011;62942;52.462;10.846;2022-12-07T00:39:24;22.2;;;31.9;;
74483;SDS011;62942;52.462;10.846;2022-12-07T00:40:34;22.2;;;32.8;;
74483;SDS011;62942;52.462;10.846;2022-12-07T00:41:44;22.6;;;34.9;;
74483;SDS011;62942;52.462;10.846;2022-12-07T00:42:44;22.7;;;35.9;;
74483;SDS011;62942;52.462;10.846;2022-12-07T00:43:45;23;;;35.5;;
74483;SDS011;62942;52.462;10.846;2022-12-07T00:44:54;23.1;;;35;;
74483;SDS011;62942;52.462;10.846;2022-12-07T00:45:55;22.7;;;35.2;;
74483;SDS011;62942;52.462;10.846;2022-12-07T00:47:04;22.8;;;36.6;;
74483;SDS011;62942;52.462;10.846;2022-12-07T00:48:04;23.1;;;35.8;;
74483;SDS011;62942;52.462;10.846;2022-12-07T00:49:04;22.9;;;35.4;;
74483;SDS011;62942;52.462;10.846;2022-12-07T00:50:14;22.8;;;34.6;;
74483;SDS011;62942;52.462;10.846;2022-12-07T00:51:24;23.7;;;36.3;;
74483;SDS011;62942;52.462;10.846;2022-12-07T00:52:34;23;;;35.9;;
74483;SDS011;62942;52.462;10.846;2022-12-07T00:53:34;24;;;37;;
74483;SDS011;62942;52.462;10.846;2022-12-07T00:54:44;23.5;;;35.5;;
74483;SDS011;62942;52.462;10.846;2022-12-07T00:55:44;23.9;;;37.6;;
74483;SDS011;62942;52.462;10.846;2022-12-07T00:56:54;24;;;37.9;;
74483;SDS011;62942;52.462;10.846;2022-12-07T00:58:04;23.5;;;37.8;;
74483;SDS011;62942;52.462;10.846;2022-12-07T00:59:04;24.6;;;39.3;;
74483;SDS011;62942;52.462;10.846;2022-12-07T01:00:14;24.9;;;40.8;;
74483;SDS011;62942;52.462;10.846;2022-12-07T01:01:14;24.9;;;41.5;;
74483;SDS011;62942;52.462;10.846;2022-12-07T01:02:24;24.5;;;39.3;;
74483;SDS011;62942;52.462;10.846;2022-12-07T01:03:24;24.2;;;39.2;;
74483;SDS011;62942;52.462;10.846;2022-12-07T01:04:24;24.6;;;40.2;;
74483;SDS011;62942;52.462;10.846;2022-12-07T01:05:34;24.5;;;38.9;;
74483;SDS011;62942;52.462;10.846;2022-12-07T01:06:34;24.8;;;41.1;;
74483;SDS011;62942;52.462;10.846;2022-12-07T01:07:44;25.6;;;40.3;;
74483;SDS011;62942;52.462;10.846;2022-12-07T01:08:54;25.7;;;40.7;;
74483;SDS011;62942;52.462;10.846;2022-12-07T01:10:05;24.8;;;41.6;;
74483;SDS011;62942;52.462;10.846;2022-12-07T01:11:15;25;;;40.1;;
74483;SDS011;62942;52.462;10.846;2022-12-07T01:12:24;25.9;;;42.9;;
74483;SDS011;62942;52.462;10.846;2022-12-07T01:13:24;25.6;;;43.3;;
74483;SDS011;62942;52.462;10.846;2022-12-07T01:14:34;25.7;;;44.2;;
74483;SDS011;62942;52.462;10.846;2022-12-07T01:15:44;25.6;;;42.7;;
74483;SDS011;62942;52.462;10.846;2022-12-07T01:16:54;25.2;;;42.2;;
74483;SDS011;62942;52.462;10.846;2022-12-07T01:18:04;25.6;;;42.3;;
74483;SDS011;62942;52.462;10.846;2022-12-07T01:19:04;25.4;;;43.8;;
74483;SDS011;62942;52.462;10.846;2022-12-07T01:20:05;26;;;44.1;;
74483;SDS011;62942;52.462;10.846;2022-12-07T01:21:05;25.2;;;44.2;;
74483;SDS011;62942;52.462;10.846;2022-12-07T01:22:14;26;;;44.3;;
74483;SDS011;62942;52.462;10.846;2022-12-07T01:23:14;26;;;44;;
74483;SDS011;62942;52.462;10.846;2022-12-07T01:24:14;26.9;;;48;;
74483;SDS011;62942;52.462;10.846;2022-12-07T01:25:24;26.7;;;49;;
74483;SDS011;62942;52.462;10.846;2022-12-07T01:26:34;26.7;;;47;;
74483;SDS011;62942;52.462;10.846;2022-12-07T01:27:44;27.3;;;48.3;;
74483;SDS011;62942;52.462;10.846;2022-12-07T01:28:54;27.4;;;47.5;;
74483;SDS011;62942;52.462;10.846;2022-12-07T01:30:06;27.8;;;51.1;;
74483;SDS011;62942;52.462;10.846;2022-12-07T01:31:15;27.7;;;48.7;;
74483;SDS011;62942;52.462;10.846;2022-12-07T01:32:24;28.5;;;51.7;;
74483;SDS011;62942;52.462;10.846;2022-12-07T01:33:35;28.8;;;54.2;;
74483;SDS011;62942;52.462;10.846;2022-12-07T01:34:44;29.4;;;53.4;;
74483;SDS011;62942;52.462;10.846;2022-12-07T01:35:44;29.9;;;56.6;;
74483;SDS011;62942;52.462;10.846;2022-12-07T01:36:54;30.2;;;57.5;;
74483;SDS011;62942;52.462;10.846;2022-12-07T01:38:04;29.9;;;58.6;;
74483;SDS011;62942;52.462;10.846;2022-12-07T01:39:14;30.5;;;58.9;;
74483;SDS011;62942;52.462;10.846;2022-12-07T01:40:14;31.6;;;64.1;;
74483;SDS011;62942;52.462;10.846;2022-12-07T01:41:25;29.8;;;59.8;;
74483;SDS011;62942;52.462;10.846;2022-12-07T01:42:34;30.6;;;62.8;;
74483;SDS011;62942;52.462;10.846;2022-12-07T01:43:34;31.5;;;65.2;;
74483;SDS011;62942;52.462;10.846;2022-12-07T01:45:14;31.4;;;66.5;;
74483;SDS011;62942;52.462;10.846;2022-12-07T01:45:39;30.8;;;64.1;;
74483;SDS011;62942;52.462;10.846;2022-12-07T01:46:45;31.8;;;65.9;;
74483;SDS011;62942;52.462;10.846;2022-12-07T01:47:55;32.2;;;67.6;;
74483;SDS011;62942;52.462;10.846;2022-12-07T01:49:04;33.2;;;70.2;;
74483;SDS011;62942;52.462;10.846;2022-12-07T01:50:04;32.7;;;68.2;;
74483;SDS011;62942;52.462;10.846;2022-12-07T01:51:05;33.7;;;69.1;;
74483;SDS011;62942;52.462;10.846;2022-12-07T01:52:15;34;;;73.2;;
74483;SDS011;62942;52.462;10.846;2022-12-07T01:53:24;33.8;;;71.4;;
74483;SDS011;62942;52.462;10.846;2022-12-07T01:54:24;34.1;;;74.5;;
74483;SDS011;62942;52.462;10.846;2022-12-07T01:55:24;34.3;;;78.2;;
74483;SDS011;62942;52.462;10.846;2022-12-07T01:56:24;33.8;;;73.2;;
74483;SDS011;62942;52.462;10.846;2022-12-07T01:57:34;34.9;;;76.8;;
74483;SDS011;62942;52.462;10.846;2022-12-07T01:58:44;33.9;;;75.8;;
74483;SDS011;62942;52.462;10.846;2022-12-07T01:59:54;34.3;;;75.6;;
74483;SDS011;62942;52.462;10.846;2022-12-07T02:00:54;34.3;;;75.7;;
74483;SDS011;62942;52.462;10.846;2022-12-07T02:01:54;34;;;76.8;;
74483;SDS011;62942;52.462;10.846;2022-12-07T02:03:05;34.3;;;77.5;;
74483;SDS011;62942;52.462;10.846;2022-12-07T02:04:04;34.6;;;76.5;;
74483;SDS011;62942;52.462;10.846;2022-12-07T02:05:14;34.2;;;74.8;;
74483;SDS011;62942;52.462;10.846;2022-12-07T02:06:24;34.7;;;75;;
74483;SDS011;62942;52.462;10.846;2022-12-07T02:07:24;34.9;;;75.4;;
74483;SDS011;62942;52.462;10.846;2022-12-07T02:08:34;34.6;;;76.4;;
74483;SDS011;62942;52.462;10.846;2022-12-07T02:09:44;34.2;;;77;;
74483;SDS011;62942;52.462;10.846;2022-12-07T02:10:44;34.2;;;73;;
74483;SDS011;62942;52.462;10.846;2022-12-07T02:11:44;34.2;;;76;;
74483;SDS011;62942;52.462;10.846;2022-12-07T02:12:55;35;;;76.9;;
74483;SDS011;62942;52.462;10.846;2022-12-07T02:14:04;34.5;;;73.7;;
74483;SDS011;62942;52.462;10.846;2022-12-07T02:15:14;34;;;73.2;;
74483;SDS011;62942;52.462;10.846;2022-12-07T02:16:18;34.2;;;73.2;;
74483;SDS011;62942;52.462;10.846;2022-12-07T02:17:25;34.1;;;73.8;;
74483;SDS011;62942;52.462;10.846;2022-12-07T02:18:38;33.2;;;68.8;;
74483;SDS011;62942;52.462;10.846;2022-12-07T02:19:50;34;;;71.8;;
74483;SDS011;62942;52.462;10.846;2022-12-07T02:20:56;33.5;;;71.2;;
74483;SDS011;62942;52.462;10.846;2022-12-07T02:22:07;33.2;;;70.5;;
74483;SDS011;62942;52.462;10.846;2022-12-07T02:24:24;32.8;;;70.9;;
74483;SDS011;62942;52.462;10.846;2022-12-07T02:24:26;33.3;;;69;;
74483;SDS011;62942;52.462;10.846;2022-12-07T02:25:27;32.9;;;69.3;;
74483;SDS011;62942;52.462;10.846;2022-12-07T02:26:44;32.7;;;69.5;;
74483;SDS011;62942;52.462;10.846;2022-12-07T02:27:36;32.9;;;67.1;;
74483;SDS011;62942;52.462;10.846;2022-12-07T02:28:34;33;;;68.8;;
74483;SDS011;62942;52.462;10.846;2022-12-07T02:29:45;33.3;;;68.8;;
74483;SDS011;62942;52.462;10.846;2022-12-07T02:30:54;33.3;;;69.2;;
74483;SDS011;62942;52.462;10.846;2022-12-07T02:32:05;32.6;;;67.6;;
74483;SDS011;62942;52.462;10.846;2022-12-07T02:33:15;33.5;;;70.1;;
74483;SDS011;62942;52.462;10.846;2022-12-07T02:34:26;32.9;;;68.9;;
74483;SDS011;62942;52.462;10.846;2022-12-07T02:35:25;33.1;;;67.6;;
74483;SDS011;62942;52.462;10.846;2022-12-07T02:36:34;33.5;;;73;;
74483;SDS011;62942;52.462;10.846;2022-12-07T02:37:47;33.7;;;74.1;;
74483;SDS011;62942;52.462;10.846;2022-12-07T02:38:48;33.2;;;70.7;;
74483;SDS011;62942;52.462;10.846;2022-12-07T02:39:55;32.5;;;67;;
74483;SDS011;62942;52.462;10.846;2022-12-07T02:40:55;33.4;;;70.6;;
74483;SDS011;62942;52.462;10.846;2022-12-07T02:42:07;32.7;;;66.1;;
74483;SDS011;62942;52.462;10.846;2022-12-07T02:43:15;33.7;;;70;;
74483;SDS011;62942;52.462;10.846;2022-12-07T02:44:24;33.8;;;69;;
74483;SDS011;62942;52.462;10.846;2022-12-07T02:45:24;33.8;;;69.4;;
74483;SDS011;62942;52.462;10.846;2022-12-07T02:46:36;33.2;;;71;;
74483;SDS011;62942;52.462;10.846;2022-12-07T02:47:34;33.1;;;67.5;;
74483;SDS011;62942;52.462;10.846;2022-12-07T02:48:44;32.8;;;65.7;;
74483;SDS011;62942;52.462;10.846;2022-12-07T02:49:54;34.7;;;73.1;;
74483;SDS011;62942;52.462;10.846;2022-12-07T02:51:04;33.6;;;72.3;;
74483;SDS011;62942;52.462;10.846;2022-12-07T02:52:04;33.8;;;69.5;;
74483;SDS011;62942;52.462;10.846;2022-12-07T02:53:46;34.5;;;71.8;;
74483;SDS011;62942;52.462;10.846;2022-12-07T02:54:15;35;;;76.2;;
74483;SDS011;62942;52.462;10.846;2022-12-07T02:55:25;34;;;70.6;;
74483;SDS011;62942;52.462;10.846;2022-12-07T02:56:35;34.6;;;73.1;;
74483;SDS011;62942;52.462;10.846;2022-12-07T02:57:38;33.9;;;70.4;;
74483;SDS011;62942;52.462;10.846;2022-12-07T02:58:38;34.8;;;72.6;;
74483;SDS011;62942;52.462;10.846;2022-12-07T02:59:47;34.7;;;71.4;;
74483;SDS011;62942;52.462;10.846;2022-12-07T03:00:45;34.1;;;72.6;;
74483;SDS011;62942;52.462;10.846;2022-12-07T03:01:47;34.6;;;73;;
74483;SDS011;62942;52.462;10.846;2022-12-07T03:02:47;34.7;;;75.1;;
74483;SDS011;62942;52.462;10.846;2022-12-07T03:03:46;35.3;;;71.8;;
74483;SDS011;62942;52.462;10.846;2022-12-07T03:04:57;34.9;;;74.9;;
74483;SDS011;62942;52.462;10.846;2022-12-07T03:06:06;34.8;;;71.4;;
74483;SDS011;62942;52.462;10.846;2022-12-07T03:07:05;34.4;;;70;;
74483;SDS011;62942;52.462;10.846;2022-12-07T03:08:05;35.2;;;72.4;;
74483;SDS011;62942;52.462;10.846;2022-12-07T03:09:06;35.3;;;72;;
74483;SDS011;62942;52.462;10.846;2022-12-07T03:10:07;35.4;;;71.9;;
74483;SDS011;62942;52.462;10.846;2022-12-07T03:11:14;35.3;;;74.3;;
74483;SDS011;62942;52.462;10.846;2022-12-07T03:12:26;35;;;72.1;;
74483;SDS011;62942;52.462;10.846;2022-12-07T03:13:34;34.6;;;70.1;;
74483;SDS011;62942;52.462;10.846;2022-12-07T03:14:35;34.7;;;71;;
74483;SDS011;62942;52.462;10.846;2022-12-07T03:15:35;34.6;;;69.7;;
74483;SDS011;62942;52.462;10.846;2022-12-07T03:16:35;33.9;;;68.1;;
74483;SDS011;62942;52.462;10.846;2022-12-07T03:17:44;33.2;;;65.2;;
74483;SDS011;62942;52.462;10.846;2022-12-07T03:18:55;32.5;;;68.3;;
74483;SDS011;62942;52.462;10.846;2022-12-07T03:20:04;32.9;;;66.5;;
74483;SDS011;62942;52.462;10.846;2022-12-07T03:21:06;32.5;;;64.9;;
74483;SDS011;62942;52.462;10.846;2022-12-07T03:22:14;32.7;;;64.6;;
74483;SDS011;62942;52.462;10.846;2022-12-07T03:23:24;32.6;;;64.5;;
74483;SDS011;62942;52.462;10.846;2022-12-07T03:24:35;32.3;;;62.2;;
74483;SDS011;62942;52.462;10.846;2022-12-07T03:25:34;31.1;;;58.3;;
74483;SDS011;62942;52.462;10.846;2022-12-07T03:26:35;31.2;;;62.1;;
74483;SDS011;62942;52.462;10.846;2022-12-07T03:27:35;30.9;;;58.1;;
74483;SDS011;62942;52.462;10.846;2022-12-07T03:28:45;31.1;;;59.9;;
74483;SDS011;62942;52.462;10.846;2022-12-07T03:29:45;30.1;;;58.4;;
74483;SDS011;62942;52.462;10.846;2022-12-07T03:30:55;29.4;;;53.4;;
74483;SDS011;62942;52.462;10.846;2022-12-07T03:31:55;29.8;;;56.1;;
74483;SDS011;62942;52.462;10.846;2022-12-07T03:32:55;29.6;;;55.7;;
74483;SDS011;62942;52.462;10.846;2022-12-07T03:34:05;28.2;;;55.2;;
74483;SDS011;62942;52.462;10.846;2022-12-07T03:35:05;28.5;;;53.3;;
74483;SDS011;62942;52.462;10.846;2022-12-07T03:36:14;28.6;;;54.1;;
74483;SDS011;62942;52.462;10.846;2022-12-07T03:37:15;29.4;;;56;;
74483;SDS011;62942;52.462;10.846;2022-12-07T03:38:15;28.4;;;54.2;;
74483;SDS011;62942;52.462;10.846;2022-12-07T03:39:25;28.7;;;52.1;;
74483;SDS011;62942;52.462;10.846;2022-12-07T03:40:26;28.2;;;53.9;;
74483;SDS011;62942;52.462;10.846;2022-12-07T03:41:24;27.3;;;48.9;;
74483;SDS011;62942;52.462;10.846;2022-12-07T03:42:34;26.1;;;47;;
74483;SDS011;62942;52.462;10.846;2022-12-07T03:43:44;26.5;;;48.2;;
74483;SDS011;62942;52.462;10.846;2022-12-07T03:44:44;26.5;;;48.7;;
74483;SDS011;62942;52.462;10.846;2022-12-07T03:45:45;26.7;;;47.7;;
74483;SDS011;62942;52.462;10.846;2022-12-07T03:46:44;26.2;;;47.5;;
74483;SDS011;62942;52.462;10.846;2022-12-07T03:47:54;25.6;;;46.7;;
74483;SDS011;62942;52.462;10.846;2022-12-07T03:49:06;25.3;;;47.1;;
74483;SDS011;62942;52.462;10.846;2022-12-07T03:50:15;25;;;45;;
74483;SDS011;62942;52.462;10.846;2022-12-07T03:51:15;25;;;46.8;;
74483;SDS011;62942;52.462;10.846;2022-12-07T03:52:25;25.5;;;45.5;;
74483;SDS011;62942;52.462;10.846;2022-12-07T03:53:34;24.7;;;43.6;;
74483;SDS011;62942;52.462;10.846;2022-12-07T03:54:45;24.4;;;42.4;;
74483;SDS011;62942;52.462;10.846;2022-12-07T03:55:44;24;;;41.4;;
74483;SDS011;62942;52.462;10.846;2022-12-07T03:56:44;23.8;;;44;;
74483;SDS011;62942;52.462;10.846;2022-12-07T03:57:54;24.5;;;43;;
74483;SDS011;62942;52.462;10.846;2022-12-07T03:58:54;23.8;;;41.5;;
74483;SDS011;62942;52.462;10.846;2022-12-07T03:59:54;23.7;;;41.5;;
74483;SDS011;62942;52.462;10.846;2022-12-07T04:00:54;22.9;;;40.5;;
74483;SDS011;62942;52.462;10.846;2022-12-07T04:02:05;21.9;;;39.3;;
74483;SDS011;62942;52.462;10.846;2022-12-07T04:03:04;22.2;;;40.5;;
74483;SDS011;62942;52.462;10.846;2022-12-07T04:04:14;21.6;;;37.3;;
74483;SDS011;62942;52.462;10.846;2022-12-07T04:05:14;22;;;37.4;;
74483;SDS011;62942;52.462;10.846;2022-12-07T04:06:14;20.9;;;36.5;;
74483;SDS011;62942;52.462;10.846;2022-12-07T04:07:14;20.7;;;34.7;;
74483;SDS011;62942;52.462;10.846;2022-12-07T04:08:24;20.5;;;35.7;;
74483;SDS011;62942;52.462;10.846;2022-12-07T04:09:34;20.6;;;36;;
74483;SDS011;62942;52.462;10.846;2022-12-07T04:10:34;20.1;;;34.4;;
74483;SDS011;62942;52.462;10.846;2022-12-07T04:11:44;20.1;;;33.5;;
74483;SDS011;62942;52.462;10.846;2022-12-07T04:12:44;20;;;34.5;;
74483;SDS011;62942;52.462;10.846;2022-12-07T04:13:54;19.7;;;33.5;;
74483;SDS011;62942;52.462;10.846;2022-12-07T04:14:54;20.3;;;36.3;;
74483;SDS011;62942;52.462;10.846;2022-12-07T04:16:04;19;;;31.9;;
74483;SDS011;62942;52.462;10.846;2022-12-07T04:17:04;19.1;;;34;;
74483;SDS011;62942;52.462;10.846;2022-12-07T04:18:04;18.7;;;34.6;;
74483;SDS011;62942;52.462;10.846;2022-12-07T04:19:14;17.9;;;30;;
74483;SDS011;62942;52.462;10.846;2022-12-07T04:20:24;18.4;;;31.6;;
74483;SDS011;62942;52.462;10.846;2022-12-07T04:21:24;17.5;;;32.4;;
74483;SDS011;62942;52.462;10.846;2022-12-07T04:22:24;16.3;;;27.1;;
74483;SDS011;62942;52.462;10.846;2022-12-07T04:23:24;16.5;;;27.5;;
74483;SDS011;62942;52.462;10.846;2022-12-07T04:24:34;15.9;;;27.2;;
74483;SDS011;62942;52.462;10.846;2022-12-07T04:25:34;15.4;;;25.2;;
74483;SDS011;62942;52.462;10.846;2022-12-07T04:26:34;15.6;;;26.7;;
74483;SDS011;62942;52.462;10.846;2022-12-07T04:27:44;15.3;;;25.4;;
74483;SDS011;62942;52.462;10.846;2022-12-07T04:28:44;14.7;;;24.1;;
74483;SDS011;62942;52.462;10.846;2022-12-07T04:29:44;14.4;;;23.7;;
74483;SDS011;62942;52.462;10.846;2022-12-07T04:30:54;14.3;;;24;;
74483;SDS011;62942;52.462;10.846;2022-12-07T04:31:54;13.9;;;22.7;;
74483;SDS011;62942;52.462;10.846;2022-12-07T04:33:04;13.8;;;21.9;;
74483;SDS011;62942;52.462;10.846;2022-12-07T04:34:04;13.8;;;22.5;;
74483;SDS011;62942;52.462;10.846;2022-12-07T04:35:14;13.9;;;24.2;;
74483;SDS011;62942;52.462;10.846;2022-12-07T04:36:14;13.9;;;24;;
74483;SDS011;62942;52.462;10.846;2022-12-07T04:37:14;13.9;;;23.1;;
74483;SDS011;62942;52.462;10.846;2022-12-07T04:38:24;14;;;22.7;;
74483;SDS011;62942;52.462;10.846;2022-12-07T04:39:24;13.9;;;24.8;;
74483;SDS011;62942;52.462;10.846;2022-12-07T04:40:24;13.6;;;22.9;;
74483;SDS011;62942;52.462;10.846;2022-12-07T04:41:34;12.4;;;21.5;;
74483;SDS011;62942;52.462;10.846;2022-12-07T04:42:34;12.8;;;21.1;;
74483;SDS011;62942;52.462;10.846;2022-12-07T04:43:44;12.9;;;22.2;;
74483;SDS011;62942;52.462;10.846;2022-12-07T04:44:54;12.2;;;19.1;;
74483;SDS011;62942;52.462;10.846;2022-12-07T04:45:54;12.1;;;20.3;;
74483;SDS011;62942;52.462;10.846;2022-12-07T04:47:04;12.3;;;22.8;;
74483;SDS011;62942;52.462;10.846;2022-12-07T04:48:04;12.2;;;20.8;;
74483;SDS011;62942;52.462;10.846;2022-12-07T04:49:04;12.1;;;20;;
74483;SDS011;62942;52.462;10.846;2022-12-07T04:50:14;12.4;;;21.6;;
74483;SDS011;62942;52.462;10.846;2022-12-07T04:51:14;12.2;;;19.8;;
74483;SDS011;62942;52.462;10.846;2022-12-07T04:52:24;12.3;;;19.8;;
74483;SDS011;62942;52.462;10.846;2022-12-07T04:53:24;12;;;20.4;;
74483;SDS011;62942;52.462;10.846;2022-12-07T04:54:34;12;;;20.1;;
74483;SDS011;62942;52.462;10.846;2022-12-07T04:55:34;11.9;;;22;;
74483;SDS011;62942;52.462;10.846;2022-12-07T04:56:44;11.5;;;19.2;;
74483;SDS011;62942;52.462;10.846;2022-12-07T04:57:44;11.1;;;19.3;;
74483;SDS011;62942;52.462;10.846;2022-12-07T04:58:44;11.2;;;19;;
74483;SDS011;62942;52.462;10.846;2022-12-07T04:59:54;11.8;;;19;;
74483;SDS011;62942;52.462;10.846;2022-12-07T05:00:54;11.6;;;19.1;;
74483;SDS011;62942;52.462;10.846;2022-12-07T05:01:54;11.3;;;19.2;;
74483;SDS011;62942;52.462;10.846;2022-12-07T05:03:04;10.9;;;16.8;;
74483;SDS011;62942;52.462;10.846;2022-12-07T05:04:04;11.3;;;18.9;;
74483;SDS011;62942;52.462;10.846;2022-12-07T05:05:14;11.5;;;19;;
74483;SDS011;62942;52.462;10.846;2022-12-07T05:06:14;11.7;;;19.3;;
74483;SDS011;62942;52.462;10.846;2022-12-07T05:07:24;11.5;;;18.4;;
74483;SDS011;62942;52.462;10.846;2022-12-07T05:08:24;11.4;;;17.7;;
74483;SDS011;62942;52.462;10.846;2022-12-07T05:09:24;11.7;;;19.2;;
74483;SDS011;62942;52.462;10.846;2022-12-07T05:10:34;11.7;;;18;;
74483;SDS011;62942;52.462;10.846;2022-12-07T05:11:44;11.5;;;18.2;;
74483;SDS011;62942;52.462;10.846;2022-12-07T05:12:44;11.4;;;18.7;;
74483;SDS011;62942;52.462;10.846;2022-12-07T05:13:44;11.3;;;17.6;;
74483;SDS011;62942;52.462;10.846;2022-12-07T05:14:44;11.4;;;18.6;;
74483;SDS011;62942;52.462;10.846;2022-12-07T05:15:54;11.2;;;19.5;;
74483;SDS011;62942;52.462;10.846;2022-12-07T05:16:54;10.9;;;17.5;;
74483;SDS011;62942;52.462;10.846;2022-12-07T05:17:54;11.6;;;18;;
74483;SDS011;62942;52.462;10.846;2022-12-07T05:18:54;11.5;;;18.6;;
74483;SDS011;62942;52.462;10.846;2022-12-07T05:20:04;11.2;;;18;;
74483;SDS011;62942;52.462;10.846;2022-12-07T05:21:04;11.1;;;17.8;;
74483;SDS011;62942;52.462;10.846;2022-12-07T05:22:14;11.6;;;18.2;;
74483;SDS011;62942;52.462;10.846;2022-12-07T05:23:24;11.3;;;19.8;;
74483;SDS011;62942;52.462;10.846;2022-12-07T05:24:24;10.9;;;18;;
74483;SDS011;62942;52.462;10.846;2022-12-07T05:25:24;11.6;;;20;;
74483;SDS011;62942;52.462;10.846;2022-12-07T05:26:24;11.5;;;18.5;;
74483;SDS011;62942;52.462;10.846;2022-12-07T05:27:24;11.6;;;18.9;;
74483;SDS011;62942;52.462;10.846;2022-12-07T05:28:34;11.1;;;18.5;;
74483;SDS011;62942;52.462;10.846;2022-12-07T05:29:34;10.6;;;16.2;;
74483;SDS011;62942;52.462;10.846;2022-12-07T05:30:44;10.7;;;18.3;;
74483;SDS011;62942;52.462;10.846;2022-12-07T05:31:54;11;;;17.2;;
74483;SDS011;62942;52.462;10.846;2022-12-07T05:32:54;11.2;;;17.7;;
74483;SDS011;62942;52.462;10.846;2022-12-07T05:33:54;10.5;;;20.1;;
74483;SDS011;62942;52.462;10.846;2022-12-07T05:35:04;10.6;;;18.2;;
74483;SDS011;62942;52.462;10.846;2022-12-07T05:36:04;10.8;;;17.9;;
74483;SDS011;62942;52.462;10.846;2022-12-07T05:37:04;10.9;;;18.8;;
74483;SDS011;62942;52.462;10.846;2022-12-07T05:38:04;10.7;;;17.6;;
74483;SDS011;62942;52.462;10.846;2022-12-07T05:39:14;10.8;;;18.4;;
74483;SDS011;62942;52.462;10.846;2022-12-07T05:40:24;10.4;;;16.4;;
74483;SDS011;62942;52.462;10.846;2022-12-07T05:41:34;11;;;18.7;;
74483;SDS011;62942;52.462;10.846;2022-12-07T05:42:44;10.8;;;18.9;;
74483;SDS011;62942;52.462;10.846;2022-12-07T05:43:44;10.8;;;18.3;;
74483;SDS011;62942;52.462;10.846;2022-12-07T05:44:44;11.1;;;18.9;;
74483;SDS011;62942;52.462;10.846;2022-12-07T05:45:54;11.1;;;18.3;;
74483;SDS011;62942;52.462;10.846;2022-12-07T05:47:04;11;;;19.2;;
74483;SDS011;62942;52.462;10.846;2022-12-07T05:48:04;10.8;;;17.5;;
74483;SDS011;62942;52.462;10.846;2022-12-07T05:49:14;10.9;;;18.7;;
74483;SDS011;62942;52.462;10.846;2022-12-07T05:50:24;11.1;;;17.1;;
74483;SDS011;62942;52.462;10.846;2022-12-07T05:51:34;10.7;;;17.2;;
74483;SDS011;62942;52.462;10.846;2022-12-07T05:52:34;11.2;;;19.5;;
74483;SDS011;62942;52.462;10.846;2022-12-07T05:53:34;11.1;;;17.8;;
74483;SDS011;62942;52.462;10.846;2022-12-07T05:54:44;11.2;;;17.6;;
74483;SDS011;62942;52.462;10.846;2022-12-07T05:55:44;11.2;;;18.7;;
74483;SDS011;62942;52.462;10.846;2022-12-07T05:56:44;11.1;;;18.3;;
74483;SDS011;62942;52.462;10.846;2022-12-07T05:57:44;11.1;;;19.3;;
74483;SDS011;62942;52.462;10.846;2022-12-07T05:58:44;11.7;;;22.1;;
74483;SDS011;62942;52.462;10.846;2022-12-07T05:59:54;11.1;;;18.2;;
74483;SDS011;62942;52.462;10.846;2022-12-07T06:00:54;11;;;19.9;;
74483;SDS011;62942;52.462;10.846;2022-12-07T06:02:04;11.3;;;17.2;;
74483;SDS011;62942;52.462;10.846;2022-12-07T06:03:04;11.3;;;19.5;;
74483;SDS011;62942;52.462;10.846;2022-12-07T06:04:14;11;;;19;;
74483;SDS011;62942;52.462;10.846;2022-12-07T06:05:24;11.5;;;19.3;;
74483;SDS011;62942;52.462;10.846;2022-12-07T06:06:24;11.1;;;18.3;;
74483;SDS011;62942;52.462;10.846;2022-12-07T06:07:34;11.4;;;18.4;;
74483;SDS011;62942;52.462;10.846;2022-12-07T06:08:34;11.3;;;17.9;;
74483;SDS011;62942;52.462;10.846;2022-12-07T06:09:34;11.4;;;18.1;;
74483;SDS011;62942;52.462;10.846;2022-12-07T06:10:44;11;;;18.7;;
74483;SDS011;62942;52.462;10.846;2022-12-07T06:11:54;11.4;;;19.6;;
74483;SDS011;62942;52.462;10.846;2022-12-07T06:12:54;11.4;;;20.3;;
74483;SDS011;62942;52.462;10.846;2022-12-07T06:13:54;11.6;;;18;;
74483;SDS011;62942;52.462;10.846;2022-12-07T06:14:54;11.8;;;21;;
74483;SDS011;62942;52.462;10.846;2022-12-07T06:16:04;11.8;;;17.9;;
74483;SDS011;62942;52.462;10.846;2022-12-07T06:17:14;11.4;;;20.2;;
74483;SDS011;62942;52.462;10.846;2022-12-07T06:18:14;11.7;;;20.5;;
74483;SDS011;62942;52.462;10.846;2022-12-07T06:19:14;11.7;;;20.5;;
74483;SDS011;62942;52.462;10.846;2022-12-07T06:20:24;12;;;20.5;;
74483;SDS011;62942;52.462;10.846;2022-12-07T06:21:24;11.8;;;20.8;;
74483;SDS011;62942;52.462;10.846;2022-12-07T06:22:24;12.5;;;21.5;;
74483;SDS011;62942;52.462;10.846;2022-12-07T06:23:24;11.8;;;19.3;;
74483;SDS011;62942;52.462;10.846;2022-12-07T06:24:34;12.3;;;20.2;;
74483;SDS011;62942;52.462;10.846;2022-12-07T06:25:34;11.7;;;19.9;;
74483;SDS011;62942;52.462;10.846;2022-12-07T06:26:34;11.7;;;19.3;;
74483;SDS011;62942;52.462;10.846;2022-12-07T06:27:44;12;;;20.2;;
74483;SDS011;62942;52.462;10.846;2022-12-07T06:28:44;12.3;;;20.3;;
74483;SDS011;62942;52.462;10.846;2022-12-07T06:29:54;11.7;;;17.7;;